Time;durP1;ratioP1;P1;durP2;ratioP2;P2;SDS_P1;SDS_P2;PMS_P1;PMS_P2;Temp;Humidity;BMP_temperature;BMP_pressure;BME280_temperature;BME280_humidity;BME280_pressure;Samples;Min_cycle;Max_cycle;Signal;HPM_P1;HPM_P2
2021/03/05 00:01:19;;;;;;;4.80;1.83;;;-2.90;99.90;;;;;;5038696;28;20318;-63
2021/03/05 00:03:46;;;;;;;7.83;2.10;;;-3.00;99.90;;;;;;5050933;28;20249;-64
2021/03/05 00:06:13;;;;;;;7.60;2.40;;;-3.00;99.90;;;;;;5052071;28;20584;-62
2021/03/05 00:08:39;;;;;;;4.17;2.27;;;-3.10;99.90;;;;;;5051843;28;20207;-64
2021/03/05 00:11:06;;;;;;;11.17;2.17;;;-3.10;99.90;;;;;;5051493;28;20226;-61
2021/03/05 00:13:32;;;;;;;4.20;1.60;;;-3.00;99.90;;;;;;5050851;28;20192;-65
2021/03/05 00:15:59;;;;;;;4.17;1.93;;;-3.00;99.90;;;;;;5050865;28;20593;-61
2021/03/05 00:18:26;;;;;;;4.50;1.90;;;-2.90;99.90;;;;;;5051759;28;20234;-62
2021/03/05 00:20:55;;;;;;;2.83;1.43;;;-2.90;99.90;;;;;;5051743;28;20270;-65
2021/03/05 00:23:21;;;;;;;3.93;1.50;;;-2.90;99.90;;;;;;5050950;28;20192;-62
2021/03/05 00:25:49;;;;;;;3.30;1.40;;;-3.00;99.90;;;;;;5051170;28;20237;-64
2021/03/05 00:28:15;;;;;;;2.33;1.50;;;-2.90;99.90;;;;;;5049474;28;20648;-63
2021/03/05 00:30:42;;;;;;;3.23;1.50;;;-2.80;99.90;;;;;;5051386;28;20210;-62
2021/03/05 00:33:09;;;;;;;2.73;1.23;;;-2.80;99.90;;;;;;5051407;28;20231;-62
2021/03/05 00:35:37;;;;;;;7.67;1.90;;;-2.70;99.90;;;;;;5051453;28;20258;-63
2021/03/05 00:38:03;;;;;;;3.50;1.43;;;-2.70;99.90;;;;;;5051827;28;20215;-66
2021/03/05 00:40:30;;;;;;;10.07;1.90;;;-2.80;99.90;;;;;;5051468;28;20262;-64
2021/03/05 00:42:56;;;;;;;7.60;2.07;;;-2.80;99.90;;;;;;5051680;28;20223;-62
2021/03/05 00:45:24;;;;;;;6.27;1.60;;;-2.90;99.90;;;;;;5055627;28;20571;-63
2021/03/05 00:47:50;;;;;;;4.60;1.40;;;-2.90;99.90;;;;;;5055464;28;20381;-63
2021/03/05 00:50:19;;;;;;;1.73;1.10;;;-3.00;99.90;;;;;;5054940;28;20246;-63
2021/03/05 00:52:47;;;;;;;4.37;1.30;;;-3.00;99.90;;;;;;5043083;28;20242;-63
2021/03/05 00:55:14;;;;;;;4.07;1.47;;;-2.90;99.90;;;;;;5035356;28;20200;-62
2021/03/05 00:57:40;;;;;;;1.93;1.10;;;-2.90;99.90;;;;;;5039337;28;20230;-66
2021/03/05 01:00:09;;;;;;;3.13;1.10;;;-2.90;99.90;;;;;;5054372;28;20219;-64
2021/03/05 01:02:36;;;;;;;1.97;1.30;;;-2.90;99.90;;;;;;5054876;28;20633;-64
2021/03/05 01:05:03;;;;;;;5.10;1.40;;;-2.80;99.90;;;;;;5054984;28;20304;-65
2021/03/05 01:07:30;;;;;;;5.80;1.80;;;-2.90;99.90;;;;;;5043495;28;20184;-62
2021/03/05 01:09:57;;;;;;;9.60;1.50;;;-2.90;99.90;;;;;;5046730;28;20507;-64
2021/03/05 01:12:24;;;;;;;5.87;0.93;;;-3.00;99.90;;;;;;5053831;28;20211;-65
2021/03/05 01:14:51;;;;;;;3.23;1.10;;;-2.90;99.90;;;;;;5054714;28;20231;-63
2021/03/05 01:17:18;;;;;;;2.30;1.20;;;-3.00;99.90;;;;;;5054564;28;20579;-62
2021/03/05 01:19:44;;;;;;;3.33;1.30;;;-3.10;99.90;;;;;;5053684;28;20291;-63
2021/03/05 01:22:11;;;;;;;2.80;1.20;;;-3.10;99.90;;;;;;5054282;28;20604;-63
2021/03/05 01:24:37;;;;;;;4.23;1.20;;;-3.00;99.90;;;;;;5053758;28;20285;-62
2021/03/05 01:27:06;;;;;;;3.07;1.43;;;-3.10;99.90;;;;;;5053185;28;20238;-63
2021/03/05 01:29:32;;;;;;;3.47;1.30;;;-3.00;99.90;;;;;;5054387;28;20228;-62
2021/03/05 01:31:58;;;;;;;3.87;1.33;;;-3.10;99.90;;;;;;5052545;28;20666;-61
2021/03/05 01:34:25;;;;;;;3.17;1.07;;;-3.10;99.90;;;;;;5054198;28;20231;-63
2021/03/05 01:36:51;;;;;;;4.40;1.00;;;-3.10;99.90;;;;;;5054038;28;20191;-64
2021/03/05 01:39:18;;;;;;;3.83;1.20;;;-3.10;99.90;;;;;;5037779;28;20201;-63
2021/03/05 01:41:44;;;;;;;5.77;1.10;;;-3.10;99.90;;;;;;5037203;28;20196;-62
2021/03/05 01:44:13;;;;;;;5.03;1.20;;;-3.10;99.90;;;;;;5053893;28;20230;-63
2021/03/05 01:46:40;;;;;;;2.27;1.03;;;-3.20;99.90;;;;;;5054160;28;20203;-63
2021/03/05 01:49:07;;;;;;;2.60;0.93;;;-3.00;99.90;;;;;;5034238;28;20215;-61
2021/03/05 01:51:36;;;;;;;2.73;1.03;;;-2.90;99.90;;;;;;5034330;28;20231;-63
2021/03/05 01:54:03;;;;;;;2.30;1.00;;;-2.90;99.90;;;;;;5034041;28;20223;-64
2021/03/05 01:56:35;;;;;;;2.77;1.20;;;-2.90;99.90;;;;;;5036406;28;20231;-65
2021/03/05 01:59:02;;;;;;;2.70;0.90;;;-3.00;99.90;;;;;;5054012;28;20192;-69
2021/03/05 02:01:30;;;;;;;3.00;1.10;;;-3.10;99.90;;;;;;5053731;28;20199;-61
2021/03/05 02:03:57;;;;;;;1.37;0.90;;;-3.20;99.90;;;;;;5053239;28;20238;-63
2021/03/05 02:06:24;;;;;;;2.27;1.07;;;-3.20;99.90;;;;;;5053826;28;20203;-64
2021/03/05 02:08:51;;;;;;;1.57;0.87;;;-3.10;99.90;;;;;;5054009;28;20183;-61
2021/03/05 02:11:19;;;;;;;2.57;0.93;;;-3.10;99.90;;;;;;5052728;28;20609;-61
2021/03/05 02:13:45;;;;;;;2.30;0.60;;;-2.90;99.90;;;;;;5040005;28;20279;-62
2021/03/05 02:16:22;;;;;;;1.73;0.90;;;-2.80;99.90;;;;;;5033735;28;20207;-62
2021/03/05 02:19:00;;;;;;;1.90;0.80;;;-2.70;99.90;;;;;;5033777;28;20626;-63
2021/03/05 02:21:56;;;;;;;2.17;0.90;;;-2.70;99.90;;;;;;5033617;28;20192;-62
2021/03/05 02:24:59;;;;;;;1.80;1.13;;;-2.70;99.90;;;;;;5030930;28;20291;-61
2021/03/05 02:27:48;;;;;;;1.37;0.93;;;-2.90;99.90;;;;;;5048038;28;20278;-62
2021/03/05 02:30:48;;;;;;;1.90;1.00;;;-2.90;99.90;;;;;;5053138;28;20198;-62
2021/03/05 02:33:21;;;;;;;2.33;0.80;;;-2.90;99.90;;;;;;5031341;28;20227;-61
2021/03/05 02:35:49;;;;;;;2.53;0.93;;;-2.80;99.90;;;;;;5052463;28;20215;-63
2021/03/05 02:38:18;;;;;;;0.70;0.70;;;-2.80;99.90;;;;;;5053588;28;20215;-63
2021/03/05 02:40:50;;;;;;;1.37;0.80;;;-2.80;99.90;;;;;;5051037;28;20231;-63
2021/03/05 02:43:19;;;;;;;1.53;0.77;;;-2.80;99.90;;;;;;5052701;28;20216;-63
2021/03/05 02:45:52;;;;;;;2.90;0.67;;;-2.70;99.90;;;;;;5052714;28;20231;-62
2021/03/05 02:48:23;;;;;;;4.30;0.80;;;-2.70;99.90;;;;;;5052891;28;20261;-63
2021/03/05 02:50:55;;;;;;;1.53;1.10;;;-2.80;99.90;;;;;;5052301;28;20614;-61
2021/03/05 02:53:23;;;;;;;1.57;0.93;;;-2.90;99.90;;;;;;5052534;28;20187;-64
2021/03/05 02:55:54;;;;;;;5.23;0.80;;;-2.90;99.90;;;;;;5051903;28;20215;-61
2021/03/05 02:58:23;;;;;;;0.70;0.60;;;-2.90;99.90;;;;;;5052459;28;20650;-63
2021/03/05 03:00:51;;;;;;;5.20;1.10;;;-2.80;99.90;;;;;;5052780;28;20284;-64
2021/03/05 03:03:20;;;;;;;0.70;0.50;;;-2.90;99.90;;;;;;5052601;28;20249;-61
2021/03/05 03:05:50;;;;;;;1.17;0.77;;;-3.00;99.90;;;;;;5035780;28;20192;-62
2021/03/05 03:08:17;;;;;;;2.00;0.60;;;-2.90;99.90;;;;;;5032972;28;20528;-63
2021/03/05 03:10:45;;;;;;;3.80;0.80;;;-3.00;99.90;;;;;;5038784;28;20207;-62
2021/03/05 03:13:12;;;;;;;5.27;1.00;;;-3.00;99.90;;;;;;5052488;28;20199;-61
2021/03/05 03:15:41;;;;;;;3.37;1.07;;;-3.00;99.90;;;;;;5052167;28;20687;-64
2021/03/05 03:18:11;;;;;;;2.83;0.77;;;-2.90;99.90;;;;;;5051831;28;20245;-63
2021/03/05 03:20:39;;;;;;;3.17;1.10;;;-3.10;99.90;;;;;;5045303;28;20370;-63
2021/03/05 03:23:06;;;;;;;3.07;0.80;;;-3.10;99.90;;;;;;5032983;28;20549;-62
2021/03/05 03:25:33;;;;;;;2.13;0.87;;;-3.00;99.90;;;;;;5039874;28;20625;-64
2021/03/05 03:28:00;;;;;;;0.73;0.50;;;-3.00;99.90;;;;;;5052613;28;20219;-63
2021/03/05 03:30:27;;;;;;;1.30;0.70;;;-3.10;99.90;;;;;;5051926;28;20200;-64
2021/03/05 03:32:54;;;;;;;1.83;0.80;;;-3.00;99.90;;;;;;5048372;28;20292;-64
2021/03/05 03:35:22;;;;;;;2.47;1.10;;;-3.00;99.90;;;;;;5052070;28;20238;-62
2021/03/05 03:37:51;;;;;;;0.60;0.60;;;-3.10;99.90;;;;;;5051165;28;20253;-61
2021/03/05 03:40:21;;;;;;;2.27;0.70;;;-3.10;99.90;;;;;;5051063;28;20219;-62
2021/03/05 03:42:48;;;;;;;1.80;0.80;;;-3.20;99.90;;;;;;5052103;28;20261;-63
2021/03/05 03:45:19;;;;;;;1.47;0.60;;;-3.20;99.90;;;;;;5051584;28;20230;-63
2021/03/05 03:47:47;;;;;;;2.00;0.90;;;-3.20;99.90;;;;;;5050604;28;20623;-63
2021/03/05 03:50:20;;;;;;;3.70;1.10;;;-3.30;99.90;;;;;;5051651;28;20237;-64
2021/03/05 03:52:50;;;;;;;4.43;1.00;;;-3.40;99.90;;;;;;5043674;28;20631;-63
2021/03/05 03:55:17;;;;;;;1.90;0.73;;;-3.40;99.90;;;;;;5051954;28;20187;-63
2021/03/05 03:57:47;;;;;;;6.67;0.97;;;-3.30;99.90;;;;;;5051953;28;20195;-64
2021/03/05 04:00:16;;;;;;;3.13;1.00;;;-3.30;99.90;;;;;;5044172;28;20219;-65
2021/03/05 04:02:46;;;;;;;0.83;0.83;;;-3.30;99.90;;;;;;5040869;28;20239;-65
2021/03/05 04:05:17;;;;;;;3.70;0.80;;;-3.30;99.90;;;;;;5051682;28;20184;-61
2021/03/05 04:07:46;;;;;;;1.40;0.80;;;-3.30;99.90;;;;;;5051782;28;20180;-63
2021/03/05 04:10:15;;;;;;;1.97;0.87;;;-3.30;99.90;;;;;;5051744;28;20242;-61
2021/03/05 04:12:42;;;;;;;1.37;0.80;;;-3.20;99.90;;;;;;5051231;28;20200;-63
2021/03/05 04:15:10;;;;;;;4.13;1.20;;;-3.20;99.90;;;;;;5051447;28;20249;-63
2021/03/05 04:17:37;;;;;;;2.33;0.83;;;-3.20;99.90;;;;;;5051631;28;20310;-61
2021/03/05 04:20:05;;;;;;;2.60;0.90;;;-3.20;99.90;;;;;;5049829;28;20247;-61
2021/03/05 04:22:33;;;;;;;1.27;0.87;;;-3.20;99.90;;;;;;5039257;28;20215;-63
2021/03/05 04:25:00;;;;;;;2.33;0.93;;;-3.20;99.90;;;;;;5055315;28;20662;-61
2021/03/05 04:27:28;;;;;;;4.27;0.80;;;-3.10;99.90;;;;;;5053261;28;20220;-63
2021/03/05 04:29:54;;;;;;;4.87;1.10;;;-3.00;99.90;;;;;;5055950;28;20670;-62
2021/03/05 04:32:20;;;;;;;1.17;0.70;;;-3.10;99.90;;;;;;5054344;28;20342;-62
2021/03/05 04:34:47;;;;;;;2.47;0.90;;;-3.20;99.90;;;;;;5048331;28;20192;-63
2021/03/05 04:37:13;;;;;;;1.50;0.80;;;-3.20;99.90;;;;;;5035188;28;20208;-61
2021/03/05 04:39:40;;;;;;;3.47;0.80;;;-3.20;99.90;;;;;;5035306;28;20251;-62
2021/03/05 04:42:06;;;;;;;0.53;0.53;;;-3.20;99.90;;;;;;5035545;28;20639;-62
2021/03/05 04:44:33;;;;;;;0.97;0.77;;;-3.30;99.90;;;;;;5034900;28;20672;-64
2021/03/05 04:47:01;;;;;;;2.83;1.00;;;-3.30;99.90;;;;;;5044946;28;20200;-61
2021/03/05 04:49:27;;;;;;;3.27;0.93;;;-3.30;99.90;;;;;;5055693;28;20191;-61
2021/03/05 04:51:54;;;;;;;0.90;0.70;;;-3.20;99.90;;;;;;5054907;28;20237;-63
2021/03/05 04:54:20;;;;;;;3.23;0.80;;;-3.20;99.90;;;;;;5045938;28;20239;-61
2021/03/05 04:56:47;;;;;;;2.97;0.90;;;-3.20;99.90;;;;;;5035069;28;20219;-65
2021/03/05 04:59:13;;;;;;;1.80;0.80;;;-3.20;99.90;;;;;;5042541;28;20211;-62
2021/03/05 05:01:40;;;;;;;2.73;0.70;;;-3.20;99.90;;;;;;5053951;28;20223;-62
2021/03/05 05:04:07;;;;;;;2.37;0.60;;;-3.20;99.90;;;;;;5052713;28;20237;-63
2021/03/05 05:06:34;;;;;;;0.90;0.70;;;-3.20;99.90;;;;;;5051575;28;20195;-63
2021/03/05 05:09:00;;;;;;;1.20;0.90;;;-3.20;99.90;;;;;;5055072;28;20604;-62
2021/03/05 05:11:26;;;;;;;1.33;0.70;;;-3.20;99.90;;;;;;5054411;28;20246;-62
2021/03/05 05:13:53;;;;;;;10.03;1.00;;;-3.10;99.90;;;;;;5054207;28;20191;-63
2021/03/05 05:16:19;;;;;;;2.67;0.93;;;-3.10;99.90;;;;;;5053679;28;20570;-62
2021/03/05 05:18:47;;;;;;;1.30;0.80;;;-3.10;99.90;;;;;;5054760;28;20278;-63
2021/03/05 05:21:13;;;;;;;3.40;0.83;;;-3.20;99.90;;;;;;5054043;28;20211;-65
2021/03/05 05:23:40;;;;;;;0.83;0.73;;;-3.20;99.90;;;;;;5055463;28;20199;-63
2021/03/05 05:26:06;;;;;;;0.63;0.50;;;-3.20;99.90;;;;;;5053692;28;20229;-64
2021/03/05 05:28:33;;;;;;;3.13;0.90;;;-3.10;99.90;;;;;;5054488;28;20551;-61
2021/03/05 05:30:59;;;;;;;3.67;0.70;;;-3.20;99.90;;;;;;5053350;28;20227;-63
2021/03/05 05:33:26;;;;;;;1.33;1.10;;;-3.20;99.90;;;;;;5053607;28;20191;-63
2021/03/05 05:35:53;;;;;;;3.30;0.70;;;-3.10;99.90;;;;;;5054037;28;20338;-62
2021/03/05 05:38:19;;;;;;;1.97;0.90;;;-3.10;99.90;;;;;;5054735;28;20319;-65
2021/03/05 05:40:46;;;;;;;1.77;0.70;;;-3.10;99.90;;;;;;5052305;28;20347;-63
2021/03/05 05:43:12;;;;;;;4.83;0.90;;;-3.00;99.90;;;;;;5054045;28;20300;-60
2021/03/05 05:45:39;;;;;;;2.27;0.93;;;-3.10;99.90;;;;;;5054235;28;20218;-65
2021/03/05 05:48:11;;;;;;;1.33;0.80;;;-3.00;99.90;;;;;;5034421;28;20612;-61
2021/03/05 05:50:39;;;;;;;2.87;0.80;;;-3.10;99.90;;;;;;5034404;28;20192;-62
2021/03/05 05:53:08;;;;;;;1.47;0.80;;;-3.00;99.90;;;;;;5034020;28;20309;-61
2021/03/05 05:55:35;;;;;;;1.07;1.03;;;-3.00;99.90;;;;;;5052040;28;20226;-65
2021/03/05 05:58:02;;;;;;;4.73;0.90;;;-3.00;99.90;;;;;;5053728;28;20222;-62
2021/03/05 06:00:29;;;;;;;3.43;0.80;;;-3.10;99.90;;;;;;5045125;28;20672;-62
2021/03/05 06:02:56;;;;;;;0.87;0.73;;;-3.10;99.90;;;;;;5034159;28;20231;-63
2021/03/05 06:05:22;;;;;;;4.07;0.87;;;-3.10;99.90;;;;;;5040393;28;20220;-62
2021/03/05 06:07:49;;;;;;;1.90;0.50;;;-3.10;99.90;;;;;;5053818;28;20199;-65
2021/03/05 06:10:16;;;;;;;1.50;0.93;;;-3.00;99.90;;;;;;5053630;28;20238;-63
2021/03/05 06:12:43;;;;;;;3.77;0.90;;;-3.00;99.90;;;;;;5052404;28;20226;-60
2021/03/05 06:15:11;;;;;;;0.73;0.50;;;-3.00;99.90;;;;;;5051788;28;20199;-62
2021/03/05 06:17:45;;;;;;;0.70;0.57;;;-2.90;99.90;;;;;;5047971;28;20255;-62
2021/03/05 06:20:14;;;;;;;1.30;0.80;;;-2.90;99.90;;;;;;5053335;28;20674;-63
2021/03/05 06:22:40;;;;;;;1.33;0.67;;;-2.80;99.90;;;;;;5053261;28;20231;-63
2021/03/05 06:25:09;;;;;;;7.43;1.07;;;-2.90;99.90;;;;;;5053699;28;20235;-62
2021/03/05 06:27:38;;;;;;;3.57;0.70;;;-2.80;99.90;;;;;;5053511;28;20211;-62
2021/03/05 06:30:07;;;;;;;2.73;0.70;;;-2.80;99.90;;;;;;5053851;28;20234;-63
2021/03/05 06:32:36;;;;;;;2.00;0.67;;;-2.70;99.90;;;;;;5040829;28;20184;-62
2021/03/05 06:35:04;;;;;;;1.87;0.67;;;-2.70;99.90;;;;;;5051711;28;20202;-62
2021/03/05 06:37:42;;;;;;;0.77;0.53;;;-2.70;99.90;;;;;;5052409;28;20244;-64
2021/03/05 06:40:09;;;;;;;1.97;0.97;;;-2.60;99.90;;;;;;5049078;28;20203;-63
2021/03/05 06:42:49;;;;;;;1.60;0.63;;;-2.60;99.90;;;;;;5053515;28;20242;-63
2021/03/05 06:45:16;;;;;;;1.10;0.70;;;-2.60;99.90;;;;;;5053366;28;20195;-63
2021/03/05 06:48:01;;;;;;;1.70;0.60;;;-2.60;99.90;;;;;;5041268;28;20220;-65
2021/03/05 06:50:28;;;;;;;1.50;0.67;;;-2.60;99.90;;;;;;5049639;28;20195;-64
2021/03/05 06:52:54;;;;;;;2.07;0.70;;;-2.50;99.90;;;;;;5052891;28;20369;-63
2021/03/05 06:55:21;;;;;;;4.33;0.60;;;-2.50;99.90;;;;;;5038779;28;20192;-62
2021/03/05 06:57:48;;;;;;;1.30;0.73;;;-2.50;99.90;;;;;;5033303;28;20729;-61
2021/03/05 07:00:17;;;;;;;4.90;0.90;;;-2.50;99.90;;;;;;5052323;28;20674;-63
2021/03/05 07:02:43;;;;;;;2.33;0.70;;;-2.50;99.90;;;;;;5040466;28;20235;-63
2021/03/05 07:05:10;;;;;;;1.73;0.87;;;-2.50;99.90;;;;;;5046341;28;20691;-63
2021/03/05 07:07:42;;;;;;;3.50;0.73;;;-2.50;99.90;;;;;;5052227;28;20561;-63
2021/03/05 07:10:10;;;;;;;1.80;0.57;;;-2.40;99.90;;;;;;5043248;28;20188;-61
2021/03/05 07:12:37;;;;;;;4.33;0.67;;;-2.50;99.90;;;;;;5032761;28;20203;-61
2021/03/05 07:15:06;;;;;;;1.10;0.70;;;-2.40;99.90;;;;;;5032341;28;20643;-64
2021/03/05 07:17:33;;;;;;;4.33;0.70;;;-2.40;99.90;;;;;;5032845;28;20286;-62
2021/03/05 07:20:00;;;;;;;0.90;0.60;;;-2.30;99.90;;;;;;5050883;28;20283;-61
2021/03/05 07:22:28;;;;;;;2.13;0.60;;;-2.30;99.90;;;;;;5051995;28;20234;-62
2021/03/05 07:24:56;;;;;;;1.80;0.50;;;-2.30;99.90;;;;;;5052468;28;20647;-64
2021/03/05 07:27:31;;;;;;;2.67;0.60;;;-2.30;99.90;;;;;;5051974;28;20623;-62
2021/03/05 07:30:01;;;;;;;1.43;0.60;;;-2.20;99.90;;;;;;5052196;28;20566;-63
2021/03/05 07:32:38;;;;;;;1.83;0.60;;;-2.20;99.90;;;;;;5044413;28;20592;-61
2021/03/05 07:35:06;;;;;;;1.73;0.80;;;-2.10;99.90;;;;;;5047543;28;20195;-61
2021/03/05 07:37:37;;;;;;;2.93;0.90;;;-2.10;99.90;;;;;;5034995;28;20214;-62
2021/03/05 07:40:07;;;;;;;6.70;0.67;;;-2.10;99.90;;;;;;5046761;28;20333;-62
2021/03/05 07:42:34;;;;;;;3.10;0.60;;;-2.10;99.90;;;;;;5034452;28;20207;-62
2021/03/05 07:45:05;;;;;;;3.87;0.90;;;-2.00;99.90;;;;;;5052272;28;20219;-63
2021/03/05 07:47:34;;;;;;;2.27;0.67;;;-2.00;99.90;;;;;;5051218;28;20616;-61
2021/03/05 07:50:02;;;;;;;1.00;0.70;;;-2.00;99.90;;;;;;5043583;28;20305;-60
2021/03/05 07:52:29;;;;;;;2.67;0.67;;;-1.90;99.90;;;;;;5032088;28;20538;-61
2021/03/05 07:54:55;;;;;;;1.73;0.70;;;-1.90;99.90;;;;;;5032345;28;20290;-63
2021/03/05 07:57:47;;;;;;;1.63;0.70;;;-1.80;99.90;;;;;;5038153;28;20214;-62
2021/03/05 08:00:53;;;;;;;0.97;0.87;;;-1.80;99.90;;;;;;5038718;28;20208;-62
2021/03/05 08:03:24;;;;;;;1.70;0.60;;;-1.80;99.90;;;;;;5050741;28;20282;-62
2021/03/05 08:05:51;;;;;;;3.23;0.97;;;-1.80;99.90;;;;;;5049869;28;20256;-63
2021/03/05 08:08:25;;;;;;;0.97;0.57;;;-1.70;99.90;;;;;;5051300;28;20636;-63
2021/03/05 08:10:54;;;;;;;2.27;0.87;;;-1.70;99.90;;;;;;5050981;28;20228;-62
2021/03/05 08:13:45;;;;;;;2.37;0.50;;;-1.70;99.90;;;;;;5050421;28;20713;-61
2021/03/05 08:16:39;;;;;;;2.00;0.90;;;-1.70;99.90;;;;;;5051551;28;20643;-63
2021/03/05 08:19:51;;;;;;;2.35;0.70;;;-1.60;99.90;;;;;;5051643;28;20472;-64
2021/03/05 08:22:20;;;;;;;1.67;0.80;;;-1.50;99.90;;;;;;5033998;28;20190;-63
2021/03/05 08:24:47;;;;;;;1.90;0.97;;;-1.40;99.90;;;;;;5051099;28;20211;-65
2021/03/05 08:27:36;;;;;;;3.53;0.87;;;-1.50;99.90;;;;;;5048500;28;20229;-63
2021/03/05 08:30:08;;;;;;;3.00;0.50;;;-1.40;99.90;;;;;;5050677;28;20341;-62
2021/03/05 08:33:05;;;;;;;0.60;0.60;;;-1.30;99.90;;;;;;5051737;28;20239;-61
2021/03/05 08:35:46;;;;;;;1.87;0.70;;;-1.30;99.90;;;;;;5051301;28;20192;-61
2021/03/05 08:38:17;;;;;;;0.60;0.53;;;-1.20;99.90;;;;;;5051597;28;20271;-62
2021/03/05 08:41:03;;;;;;;2.27;1.03;;;-1.20;99.90;;;;;;5052003;28;20214;-62
2021/03/05 08:43:31;;;;;;;1.70;0.80;;;-1.20;99.90;;;;;;5050972;28;20612;-63
2021/03/05 08:46:00;;;;;;;0.93;0.60;;;-1.10;99.90;;;;;;5051898;28;20226;-63
2021/03/05 08:48:40;;;;;;;1.43;0.80;;;-1.00;99.90;;;;;;5051677;28;20194;-62
2021/03/05 08:51:13;;;;;;;5.60;0.80;;;-1.00;99.90;;;;;;5051738;28;20598;-62
2021/03/05 08:53:42;;;;;;;1.13;0.50;;;-1.00;99.90;;;;;;5051578;28;20210;-62
2021/03/05 08:56:11;;;;;;;9.70;0.83;;;-0.80;99.90;;;;;;5050629;28;20231;-61
2021/03/05 08:58:37;;;;;;;2.57;0.70;;;-0.80;99.90;;;;;;5051760;28;20245;-64
2021/03/05 09:01:04;;;;;;;2.27;0.47;;;-0.80;99.90;;;;;;5051562;28;20219;-62
2021/03/05 09:03:30;;;;;;;4.17;0.70;;;-0.80;99.90;;;;;;5050921;28;20702;-61
2021/03/05 09:05:57;;;;;;;1.60;0.70;;;-0.70;99.90;;;;;;5055026;28;20207;-61
2021/03/05 09:08:25;;;;;;;2.47;0.60;;;-0.70;99.90;;;;;;5054872;28;20184;-62
2021/03/05 09:10:55;;;;;;;2.63;0.90;;;-0.70;99.90;;;;;;5055031;28;20207;-64
2021/03/05 09:13:23;;;;;;;1.27;0.90;;;-0.70;99.90;;;;;;5055124;28;20200;-65
2021/03/05 09:15:53;;;;;;;0.63;0.57;;;-0.60;99.90;;;;;;5055091;28;20191;-62
2021/03/05 09:18:22;;;;;;;0.93;0.80;;;-0.70;99.90;;;;;;5054324;28;20303;-61
2021/03/05 09:20:50;;;;;;;0.63;0.50;;;-0.70;99.90;;;;;;5054630;28;20250;-61
2021/03/05 09:23:19;;;;;;;4.07;0.80;;;-0.50;99.90;;;;;;5055025;28;20222;-62
2021/03/05 09:25:50;;;;;;;1.13;0.70;;;-0.40;99.90;;;;;;5054442;28;20698;-63
2021/03/05 09:28:18;;;;;;;0.50;0.50;;;-0.40;99.90;;;;;;5054885;28;20188;-63
2021/03/05 09:30:49;;;;;;;1.70;0.60;;;-0.40;99.90;;;;;;5054220;28;20199;-60
2021/03/05 09:33:15;;;;;;;1.10;0.60;;;-0.40;99.90;;;;;;5053771;28;20195;-63
2021/03/05 09:35:42;;;;;;;1.17;0.77;;;-0.40;99.90;;;;;;5054351;28;20247;-63
2021/03/05 09:38:09;;;;;;;0.50;0.50;;;-0.50;99.90;;;;;;5054637;28;20246;-63
2021/03/05 09:40:35;;;;;;;1.30;0.47;;;-0.40;99.90;;;;;;5054296;28;20605;-62
2021/03/05 09:43:03;;;;;;;1.07;0.70;;;-0.30;99.90;;;;;;5053415;28;20234;-63
2021/03/05 09:45:42;;;;;;;0.50;0.50;;;-0.40;99.90;;;;;;5054567;28;20203;-62
2021/03/05 09:48:11;;;;;;;0.97;0.70;;;-0.20;99.90;;;;;;5053722;28;20222;-62
2021/03/05 09:50:38;;;;;;;1.83;0.60;;;-0.30;99.90;;;;;;5054065;28;20199;-62
2021/03/05 09:53:24;;;;;;;2.83;0.60;;;-0.30;99.90;;;;;;5054426;28;20203;-63
2021/03/05 09:55:51;;;;;;;10.37;1.00;;;-0.20;99.90;;;;;;5054293;28;20295;-65
2021/03/05 09:58:18;;;;;;;0.80;0.60;;;-0.10;99.90;;;;;;5054749;28;20188;-63
2021/03/05 10:00:47;;;;;;;0.83;0.60;;;-0.10;99.90;;;;;;5053897;28;20251;-65
2021/03/05 10:03:16;;;;;;;1.53;0.60;;;0.00;99.90;;;;;;5054350;28;20207;-64
2021/03/05 10:05:46;;;;;;;6.13;0.73;;;0.10;99.90;;;;;;5054364;28;20195;-62
2021/03/05 10:08:19;;;;;;;1.63;0.80;;;0.10;99.90;;;;;;5052923;28;20202;-63
2021/03/05 10:11:07;;;;;;;0.90;0.60;;;0.00;99.90;;;;;;5053682;28;20640;-64
2021/03/05 10:13:41;;;;;;;1.47;0.70;;;0.10;99.90;;;;;;5053859;28;20604;-63
2021/03/05 10:16:16;;;;;;;2.40;0.47;;;0.30;99.90;;;;;;5052614;28;20257;-62
2021/03/05 10:18:43;;;;;;;0.60;0.50;;;0.10;99.90;;;;;;5053682;28;20316;-62
2021/03/05 10:21:11;;;;;;;1.77;0.70;;;0.20;99.90;;;;;;5065065;28;20690;-63
2021/03/05 10:23:38;;;;;;;1.97;0.60;;;0.30;99.90;;;;;;5053996;28;20227;-62
2021/03/05 10:26:15;;;;;;;5.83;0.87;;;0.20;99.90;;;;;;5053011;28;20659;-64
2021/03/05 10:28:42;;;;;;;7.57;0.70;;;0.30;99.90;;;;;;5053538;28;20230;-61
2021/03/05 10:31:08;;;;;;;2.90;0.80;;;0.50;99.90;;;;;;5053776;28;20211;-63
2021/03/05 10:33:37;;;;;;;2.37;0.67;;;0.70;99.90;;;;;;5053125;28;20203;-63
2021/03/05 10:36:05;;;;;;;0.70;0.60;;;0.60;99.90;;;;;;5052893;28;20196;-62
2021/03/05 10:38:31;;;;;;;1.80;0.60;;;0.50;99.90;;;;;;5053675;28;20191;-65
2021/03/05 10:40:58;;;;;;;2.93;0.77;;;0.30;99.90;;;;;;5053392;28;20618;-64
2021/03/05 10:43:24;;;;;;;0.97;0.67;;;0.50;99.90;;;;;;5053220;28;20202;-64
2021/03/05 10:45:51;;;;;;;0.97;0.50;;;0.70;99.90;;;;;;5053108;28;20183;-64
2021/03/05 10:48:18;;;;;;;2.77;0.80;;;0.60;99.90;;;;;;5055185;28;20199;-63
2021/03/05 10:50:45;;;;;;;3.10;0.80;;;0.70;99.90;;;;;;5050748;28;20199;-62
2021/03/05 10:53:12;;;;;;;1.07;0.60;;;0.70;99.90;;;;;;5052535;28;20200;-61
2021/03/05 10:55:38;;;;;;;1.53;0.60;;;0.90;99.90;;;;;;5052990;28;20237;-63
2021/03/05 10:58:05;;;;;;;2.07;0.60;;;0.90;99.90;;;;;;5051908;28;20192;-64
2021/03/05 11:00:32;;;;;;;5.57;1.67;;;0.50;99.90;;;;;;5052471;28;20343;-63
2021/03/05 11:02:58;;;;;;;4.00;0.90;;;0.40;99.90;;;;;;5040050;28;20227;-64
2021/03/05 11:05:25;;;;;;;5.03;1.47;;;0.40;99.90;;;;;;5052426;28;20713;-68
2021/03/05 11:07:53;;;;;;;5.40;1.10;;;0.50;99.90;;;;;;5039944;28;20248;-63
2021/03/05 11:10:20;;;;;;;2.10;0.50;;;0.50;99.90;;;;;;5050566;28;20199;-63
2021/03/05 11:12:47;;;;;;;5.13;0.80;;;0.50;99.90;;;;;;5052333;28;20230;-62
2021/03/05 11:15:15;;;;;;;4.53;0.90;;;0.60;99.90;;;;;;5052656;28;20286;-63
2021/03/05 11:17:42;;;;;;;4.27;0.67;;;0.70;99.90;;;;;;5051288;28;20614;-61
2021/03/05 11:20:09;;;;;;;2.93;0.77;;;0.50;99.90;;;;;;5058532;28;20283;-64
2021/03/05 11:22:36;;;;;;;4.10;0.90;;;0.30;99.90;;;;;;5063017;28;20290;-62
2021/03/05 11:25:04;;;;;;;14.47;3.87;;;0.40;99.90;;;;;;5052328;28;20203;-61
2021/03/05 11:27:32;;;;;;;2.10;0.97;;;0.60;99.90;;;;;;5051967;28;20229;-62
2021/03/05 11:29:59;;;;;;;1.17;0.77;;;0.70;99.90;;;;;;5051950;28;20224;-62
2021/03/05 11:32:25;;;;;;;2.07;0.93;;;1.00;99.90;;;;;;5052347;28;20278;-66
2021/03/05 11:34:52;;;;;;;5.00;0.83;;;1.00;99.90;;;;;;5052361;28;20676;-63
2021/03/05 11:37:18;;;;;;;7.10;1.33;;;0.80;99.90;;;;;;5051591;28;20227;-63
2021/03/05 11:39:45;;;;;;;2.30;1.10;;;0.90;99.90;;;;;;5052377;28;20281;-62
2021/03/05 11:42:12;;;;;;;3.63;0.70;;;0.80;99.90;;;;;;5052040;28;20400;-62
2021/03/05 11:44:39;;;;;;;2.20;0.70;;;0.70;99.90;;;;;;5052379;28;20227;-63
2021/03/05 11:47:05;;;;;;;1.27;0.63;;;0.70;99.90;;;;;;5052044;28;20196;-63
2021/03/05 11:49:32;;;;;;;1.77;0.90;;;0.70;99.90;;;;;;5051902;28;20587;-64
2021/03/05 11:51:58;;;;;;;3.80;0.90;;;1.00;99.90;;;;;;5050677;28;20196;-62
2021/03/05 11:54:25;;;;;;;3.60;0.80;;;1.30;99.90;;;;;;5051548;28;20203;-62
2021/03/05 11:56:51;;;;;;;3.30;0.83;;;1.10;99.90;;;;;;5052165;28;20232;-63
2021/03/05 11:59:20;;;;;;;2.10;0.60;;;1.10;99.90;;;;;;5051929;28;20215;-62
2021/03/05 12:01:46;;;;;;;1.57;0.70;;;1.00;99.90;;;;;;5051245;28;20707;-61
2021/03/05 12:04:13;;;;;;;1.30;0.57;;;0.80;99.90;;;;;;5052206;28;20202;-64
2021/03/05 12:06:39;;;;;;;0.70;0.50;;;0.80;99.90;;;;;;5051777;28;20195;-63
2021/03/05 12:09:06;;;;;;;1.43;0.63;;;0.60;99.90;;;;;;5051623;28;20199;-63
2021/03/05 12:11:34;;;;;;;1.53;0.73;;;0.80;99.90;;;;;;5051641;28;20284;-61
2021/03/05 12:14:00;;;;;;;0.40;0.40;;;0.80;99.90;;;;;;5051877;28;20274;-64
2021/03/05 12:16:28;;;;;;;1.57;0.40;;;0.80;99.90;;;;;;5051049;28;20202;-63
2021/03/05 12:18:55;;;;;;;1.07;0.60;;;0.90;99.90;;;;;;5051724;28;20223;-64
2021/03/05 12:21:21;;;;;;;3.20;0.83;;;1.00;99.90;;;;;;5067188;28;20250;-66
2021/03/05 12:23:47;;;;;;;2.53;0.60;;;0.80;99.90;;;;;;5071621;28;20230;-62
2021/03/05 12:26:14;;;;;;;1.20;0.90;;;0.80;99.90;;;;;;5064218;28;20204;-63
2021/03/05 12:28:41;;;;;;;0.97;0.63;;;0.80;99.90;;;;;;5052127;28;20237;-64
2021/03/05 12:31:08;;;;;;;6.83;1.03;;;0.80;99.90;;;;;;5051863;28;20567;-63
2021/03/05 12:33:35;;;;;;;4.10;0.80;;;1.00;99.90;;;;;;5051468;28;20221;-63
2021/03/05 12:36:03;;;;;;;4.50;0.60;;;1.30;99.90;;;;;;5050928;28;20231;-62
2021/03/05 12:38:29;;;;;;;5.27;1.20;;;1.30;99.90;;;;;;5052582;28;20246;-61
2021/03/05 12:40:57;;;;;;;2.40;0.70;;;1.30;99.90;;;;;;5055615;28;20268;-63
2021/03/05 12:43:23;;;;;;;4.87;1.03;;;1.40;99.90;;;;;;5055328;28;20196;-64
2021/03/05 12:45:51;;;;;;;2.47;1.00;;;1.20;99.90;;;;;;5055528;28;20297;-63
2021/03/05 12:48:17;;;;;;;3.43;0.90;;;1.20;99.90;;;;;;5055379;28;20184;-64
2021/03/05 12:50:45;;;;;;;1.93;0.90;;;0.80;99.90;;;;;;5054586;28;20638;-65
2021/03/05 12:53:11;;;;;;;2.87;1.07;;;0.60;99.90;;;;;;5055096;28;20208;-65
2021/03/05 12:55:38;;;;;;;4.63;0.90;;;0.40;99.90;;;;;;5054824;28;20245;-63
2021/03/05 12:58:04;;;;;;;3.60;0.90;;;0.50;99.90;;;;;;5055737;28;20219;-61